sensor_id;sensor_type;location;lat;lon;timestamp;P1;durP1;ratioP1;P2;durP2;ratioP2
5052;SDS011;2545;50.892;5.740;2022-07-10T00:01:22;6.50;;;2.63;;
5052;SDS011;2545;50.892;5.740;2022-07-10T00:03:47;4.70;;;2.20;;
5052;SDS011;2545;50.892;5.740;2022-07-10T00:06:14;5.83;;;3.07;;
5052;SDS011;2545;50.892;5.740;2022-07-10T00:08:40;10.47;;;2.80;;
5052;SDS011;2545;50.892;5.740;2022-07-10T00:11:07;5.23;;;2.87;;
5052;SDS011;2545;50.892;5.740;2022-07-10T00:13:33;10.47;;;3.30;;
5052;SDS011;2545;50.892;5.740;2022-07-10T00:15:59;5.40;;;2.30;;
5052;SDS011;2545;50.892;5.740;2022-07-10T00:18:24;4.97;;;2.40;;
5052;SDS011;2545;50.892;5.740;2022-07-10T00:20:49;4.50;;;2.20;;
5052;SDS011;2545;50.892;5.740;2022-07-10T00:23:14;11.33;;;2.93;;
5052;SDS011;2545;50.892;5.740;2022-07-10T00:25:40;5.33;;;2.53;;
5052;SDS011;2545;50.892;5.740;2022-07-10T00:28:05;7.13;;;2.17;;
5052;SDS011;2545;50.892;5.740;2022-07-10T00:30:30;6.77;;;3.20;;
5052;SDS011;2545;50.892;5.740;2022-07-10T00:32:56;7.13;;;2.77;;
5052;SDS011;2545;50.892;5.740;2022-07-10T00:35:21;9.53;;;3.30;;
5052;SDS011;2545;50.892;5.740;2022-07-10T00:37:47;11.10;;;2.70;;
5052;SDS011;2545;50.892;5.740;2022-07-10T00:40:12;5.83;;;2.80;;
5052;SDS011;2545;50.892;5.740;2022-07-10T00:42:37;5.07;;;2.50;;
5052;SDS011;2545;50.892;5.740;2022-07-10T00:45:03;10.53;;;2.80;;
5052;SDS011;2545;50.892;5.740;2022-07-10T00:47:29;7.10;;;2.80;;
5052;SDS011;2545;50.892;5.740;2022-07-10T00:49:54;7.70;;;3.23;;
5052;SDS011;2545;50.892;5.740;2022-07-10T00:52:19;6.83;;;3.03;;
5052;SDS011;2545;50.892;5.740;2022-07-10T00:54:46;9.80;;;3.20;;
5052;SDS011;2545;50.892;5.740;2022-07-10T00:57:13;6.33;;;3.10;;
5052;SDS011;2545;50.892;5.740;2022-07-10T00:59:40;6.97;;;3.20;;
5052;SDS011;2545;50.892;5.740;2022-07-10T01:02:06;6.77;;;3.07;;
5052;SDS011;2545;50.892;5.740;2022-07-10T01:04:32;8.00;;;3.70;;
5052;SDS011;2545;50.892;5.740;2022-07-10T01:06:58;5.97;;;3.33;;
5052;SDS011;2545;50.892;5.740;2022-07-10T01:09:24;8.47;;;3.70;;
5052;SDS011;2545;50.892;5.740;2022-07-10T01:11:50;8.03;;;3.73;;
5052;SDS011;2545;50.892;5.740;2022-07-10T01:14:16;18.60;;;4.40;;
5052;SDS011;2545;50.892;5.740;2022-07-10T01:16:41;7.90;;;3.50;;
5052;SDS011;2545;50.892;5.740;2022-07-10T01:19:08;9.80;;;3.50;;
5052;SDS011;2545;50.892;5.740;2022-07-10T01:21:34;7.97;;;3.60;;
5052;SDS011;2545;50.892;5.740;2022-07-10T01:24:08;9.23;;;3.60;;
5052;SDS011;2545;50.892;5.740;2022-07-10T01:26:34;9.70;;;3.37;;
5052;SDS011;2545;50.892;5.740;2022-07-10T01:29:06;10.80;;;3.93;;
5052;SDS011;2545;50.892;5.740;2022-07-10T01:31:32;10.57;;;4.10;;
5052;SDS011;2545;50.892;5.740;2022-07-10T01:33:59;7.60;;;4.47;;
5052;SDS011;2545;50.892;5.740;2022-07-10T01:36:25;7.57;;;3.80;;
5052;SDS011;2545;50.892;5.740;2022-07-10T01:38:53;10.63;;;4.20;;
5052;SDS011;2545;50.892;5.740;2022-07-10T01:41:19;7.97;;;3.33;;
5052;SDS011;2545;50.892;5.740;2022-07-10T01:43:45;6.83;;;3.33;;
5052;SDS011;2545;50.892;5.740;2022-07-10T01:46:11;8.23;;;3.93;;
5052;SDS011;2545;50.892;5.740;2022-07-10T01:48:37;6.57;;;3.63;;
5052;SDS011;2545;50.892;5.740;2022-07-10T01:51:03;5.33;;;2.90;;
5052;SDS011;2545;50.892;5.740;2022-07-10T01:53:29;4.07;;;3.00;;
5052;SDS011;2545;50.892;5.740;2022-07-10T01:55:55;13.23;;;3.93;;
5052;SDS011;2545;50.892;5.740;2022-07-10T01:58:21;7.47;;;3.63;;
5052;SDS011;2545;50.892;5.740;2022-07-10T02:00:46;5.93;;;3.50;;
5052;SDS011;2545;50.892;5.740;2022-07-10T02:03:11;15.80;;;3.50;;
5052;SDS011;2545;50.892;5.740;2022-07-10T02:05:55;5.07;;;3.57;;
5052;SDS011;2545;50.892;5.740;2022-07-10T02:08:21;8.60;;;3.20;;
5052;SDS011;2545;50.892;5.740;2022-07-10T02:10:46;11.07;;;2.90;;
5052;SDS011;2545;50.892;5.740;2022-07-10T02:13:11;9.30;;;2.77;;
5052;SDS011;2545;50.892;5.740;2022-07-10T02:15:39;5.50;;;2.90;;
5052;SDS011;2545;50.892;5.740;2022-07-10T02:18:05;6.70;;;3.13;;
5052;SDS011;2545;50.892;5.740;2022-07-10T02:20:30;11.60;;;3.33;;
5052;SDS011;2545;50.892;5.740;2022-07-10T02:22:58;10.20;;;3.43;;
5052;SDS011;2545;50.892;5.740;2022-07-10T02:25:23;16.00;;;4.83;;
5052;SDS011;2545;50.892;5.740;2022-07-10T02:27:49;10.20;;;3.37;;
5052;SDS011;2545;50.892;5.740;2022-07-10T02:30:14;6.97;;;3.07;;
5052;SDS011;2545;50.892;5.740;2022-07-10T02:32:39;8.53;;;3.17;;
5052;SDS011;2545;50.892;5.740;2022-07-10T02:35:04;5.83;;;3.30;;
5052;SDS011;2545;50.892;5.740;2022-07-10T02:37:30;13.03;;;2.97;;
5052;SDS011;2545;50.892;5.740;2022-07-10T02:39:55;5.80;;;3.60;;
5052;SDS011;2545;50.892;5.740;2022-07-10T02:42:21;5.30;;;3.00;;
5052;SDS011;2545;50.892;5.740;2022-07-10T02:44:46;6.30;;;3.90;;
5052;SDS011;2545;50.892;5.740;2022-07-10T02:47:12;10.77;;;3.50;;
5052;SDS011;2545;50.892;5.740;2022-07-10T02:49:37;7.60;;;4.60;;
5052;SDS011;2545;50.892;5.740;2022-07-10T02:52:03;7.03;;;3.03;;
5052;SDS011;2545;50.892;5.740;2022-07-10T02:54:28;8.13;;;3.33;;
5052;SDS011;2545;50.892;5.740;2022-07-10T02:56:53;8.80;;;3.50;;
5052;SDS011;2545;50.892;5.740;2022-07-10T02:59:19;11.60;;;3.60;;
5052;SDS011;2545;50.892;5.740;2022-07-10T03:01:44;9.17;;;3.50;;
5052;SDS011;2545;50.892;5.740;2022-07-10T03:04:09;6.97;;;3.20;;
5052;SDS011;2545;50.892;5.740;2022-07-10T03:06:35;8.03;;;3.57;;
5052;SDS011;2545;50.892;5.740;2022-07-10T03:09:00;8.90;;;4.10;;
5052;SDS011;2545;50.892;5.740;2022-07-10T03:11:25;6.73;;;4.00;;
5052;SDS011;2545;50.892;5.740;2022-07-10T03:13:51;3.93;;;3.27;;
5052;SDS011;2545;50.892;5.740;2022-07-10T03:16:16;15.20;;;3.60;;
5052;SDS011;2545;50.892;5.740;2022-07-10T03:18:41;5.33;;;3.20;;
5052;SDS011;2545;50.892;5.740;2022-07-10T03:21:06;7.50;;;3.47;;
5052;SDS011;2545;50.892;5.740;2022-07-10T03:23:32;5.30;;;3.27;;
5052;SDS011;2545;50.892;5.740;2022-07-10T03:25:57;10.30;;;3.40;;
5052;SDS011;2545;50.892;5.740;2022-07-10T03:28:22;7.23;;;4.03;;
5052;SDS011;2545;50.892;5.740;2022-07-10T03:30:48;9.33;;;3.40;;
5052;SDS011;2545;50.892;5.740;2022-07-10T03:33:13;7.47;;;3.80;;
5052;SDS011;2545;50.892;5.740;2022-07-10T03:35:38;8.13;;;3.70;;
5052;SDS011;2545;50.892;5.740;2022-07-10T03:38:04;5.27;;;4.20;;
5052;SDS011;2545;50.892;5.740;2022-07-10T03:40:29;12.13;;;4.00;;
5052;SDS011;2545;50.892;5.740;2022-07-10T03:42:54;7.90;;;3.03;;
5052;SDS011;2545;50.892;5.740;2022-07-10T03:45:20;10.73;;;4.13;;
5052;SDS011;2545;50.892;5.740;2022-07-10T03:47:45;6.77;;;4.10;;
5052;SDS011;2545;50.892;5.740;2022-07-10T03:50:11;5.20;;;3.53;;
5052;SDS011;2545;50.892;5.740;2022-07-10T03:52:36;8.10;;;4.17;;
5052;SDS011;2545;50.892;5.740;2022-07-10T03:55:01;4.93;;;3.17;;
5052;SDS011;2545;50.892;5.740;2022-07-10T03:57:27;6.50;;;3.80;;
5052;SDS011;2545;50.892;5.740;2022-07-10T04:00:11;8.83;;;3.20;;
5052;SDS011;2545;50.892;5.740;2022-07-10T04:02:37;5.57;;;3.10;;
5052;SDS011;2545;50.892;5.740;2022-07-10T04:05:06;7.57;;;3.20;;
5052;SDS011;2545;50.892;5.740;2022-07-10T04:07:32;5.63;;;3.70;;
5052;SDS011;2545;50.892;5.740;2022-07-10T04:09:58;16.60;;;3.90;;
5052;SDS011;2545;50.892;5.740;2022-07-10T04:12:23;6.17;;;3.63;;
5052;SDS011;2545;50.892;5.740;2022-07-10T04:14:48;13.90;;;3.53;;
5052;SDS011;2545;50.892;5.740;2022-07-10T04:17:16;5.73;;;2.80;;
5052;SDS011;2545;50.892;5.740;2022-07-10T04:19:42;8.87;;;3.10;;
5052;SDS011;2545;50.892;5.740;2022-07-10T04:22:08;5.67;;;2.80;;
5052;SDS011;2545;50.892;5.740;2022-07-10T04:24:33;11.10;;;2.97;;
5052;SDS011;2545;50.892;5.740;2022-07-10T04:26:58;8.37;;;3.17;;
5052;SDS011;2545;50.892;5.740;2022-07-10T04:29:24;5.07;;;2.87;;
5052;SDS011;2545;50.892;5.740;2022-07-10T04:31:49;7.03;;;2.77;;
5052;SDS011;2545;50.892;5.740;2022-07-10T04:34:14;6.83;;;2.70;;
5052;SDS011;2545;50.892;5.740;2022-07-10T04:36:40;9.70;;;2.83;;
5052;SDS011;2545;50.892;5.740;2022-07-10T04:39:05;8.83;;;3.73;;
5052;SDS011;2545;50.892;5.740;2022-07-10T04:41:30;5.40;;;3.17;;
5052;SDS011;2545;50.892;5.740;2022-07-10T04:43:55;10.80;;;2.63;;
5052;SDS011;2545;50.892;5.740;2022-07-10T04:46:21;10.83;;;3.10;;
5052;SDS011;2545;50.892;5.740;2022-07-10T04:48:46;14.60;;;3.50;;
5052;SDS011;2545;50.892;5.740;2022-07-10T04:51:11;4.00;;;2.63;;
5052;SDS011;2545;50.892;5.740;2022-07-10T04:53:37;7.63;;;3.10;;
5052;SDS011;2545;50.892;5.740;2022-07-10T04:56:02;9.27;;;3.30;;
5052;SDS011;2545;50.892;5.740;2022-07-10T04:58:27;10.80;;;3.97;;
5052;SDS011;2545;50.892;5.740;2022-07-10T05:00:53;10.40;;;3.03;;
5052;SDS011;2545;50.892;5.740;2022-07-10T05:03:19;5.93;;;2.93;;
5052;SDS011;2545;50.892;5.740;2022-07-10T05:05:44;5.83;;;2.67;;
5052;SDS011;2545;50.892;5.740;2022-07-10T05:08:09;15.00;;;2.80;;
5052;SDS011;2545;50.892;5.740;2022-07-10T05:10:35;13.03;;;3.23;;
5052;SDS011;2545;50.892;5.740;2022-07-10T05:13:00;13.33;;;3.17;;
5052;SDS011;2545;50.892;5.740;2022-07-10T05:15:26;9.17;;;3.67;;
5052;SDS011;2545;50.892;5.740;2022-07-10T05:17:51;6.07;;;3.00;;
5052;SDS011;2545;50.892;5.740;2022-07-10T05:20:16;5.00;;;2.70;;
5052;SDS011;2545;50.892;5.740;2022-07-10T05:22:42;5.27;;;2.60;;
5052;SDS011;2545;50.892;5.740;2022-07-10T05:25:07;5.17;;;2.63;;
5052;SDS011;2545;50.892;5.740;2022-07-10T05:27:32;11.03;;;2.80;;
5052;SDS011;2545;50.892;5.740;2022-07-10T05:29:58;15.27;;;3.10;;
5052;SDS011;2545;50.892;5.740;2022-07-10T05:32:23;9.73;;;3.37;;
5052;SDS011;2545;50.892;5.740;2022-07-10T05:34:50;12.43;;;3.37;;
5052;SDS011;2545;50.892;5.740;2022-07-10T05:37:16;10.13;;;3.47;;
5052;SDS011;2545;50.892;5.740;2022-07-10T05:39:42;6.73;;;3.17;;
5052;SDS011;2545;50.892;5.740;2022-07-10T05:42:08;9.40;;;3.17;;
5052;SDS011;2545;50.892;5.740;2022-07-10T05:44:33;9.87;;;3.10;;
5052;SDS011;2545;50.892;5.740;2022-07-10T05:46:58;5.97;;;2.80;;
5052;SDS011;2545;50.892;5.740;2022-07-10T05:49:24;7.03;;;2.50;;
5052;SDS011;2545;50.892;5.740;2022-07-10T05:51:50;9.43;;;2.63;;
5052;SDS011;2545;50.892;5.740;2022-07-10T05:54:15;5.23;;;2.30;;
5052;SDS011;2545;50.892;5.740;2022-07-10T05:56:40;8.83;;;2.93;;
5052;SDS011;2545;50.892;5.740;2022-07-10T05:59:06;8.40;;;3.30;;
5052;SDS011;2545;50.892;5.740;2022-07-10T06:01:31;7.13;;;2.87;;
5052;SDS011;2545;50.892;5.740;2022-07-10T06:03:56;12.47;;;2.90;;
5052;SDS011;2545;50.892;5.740;2022-07-10T06:06:22;10.23;;;2.77;;
5052;SDS011;2545;50.892;5.740;2022-07-10T06:08:47;7.17;;;2.77;;
5052;SDS011;2545;50.892;5.740;2022-07-10T06:11:12;8.40;;;3.27;;
5052;SDS011;2545;50.892;5.740;2022-07-10T06:13:38;10.13;;;3.20;;
5052;SDS011;2545;50.892;5.740;2022-07-10T06:16:03;7.73;;;2.63;;
5052;SDS011;2545;50.892;5.740;2022-07-10T06:18:30;10.00;;;2.83;;
5052;SDS011;2545;50.892;5.740;2022-07-10T06:20:57;8.03;;;3.10;;
5052;SDS011;2545;50.892;5.740;2022-07-10T06:23:23;6.53;;;2.80;;
5052;SDS011;2545;50.892;5.740;2022-07-10T06:25:48;7.97;;;2.57;;
5052;SDS011;2545;50.892;5.740;2022-07-10T06:28:14;7.63;;;3.00;;
5052;SDS011;2545;50.892;5.740;2022-07-10T06:30:40;7.83;;;3.07;;
5052;SDS011;2545;50.892;5.740;2022-07-10T06:33:06;4.70;;;2.37;;
5052;SDS011;2545;50.892;5.740;2022-07-10T06:35:31;10.20;;;2.70;;
5052;SDS011;2545;50.892;5.740;2022-07-10T06:37:56;8.77;;;2.93;;
5052;SDS011;2545;50.892;5.740;2022-07-10T06:40:22;7.67;;;2.27;;
5052;SDS011;2545;50.892;5.740;2022-07-10T06:42:47;9.57;;;2.47;;
5052;SDS011;2545;50.892;5.740;2022-07-10T06:45:13;5.97;;;2.47;;
5052;SDS011;2545;50.892;5.740;2022-07-10T06:47:38;13.20;;;2.47;;
5052;SDS011;2545;50.892;5.740;2022-07-10T06:50:24;11.90;;;3.23;;
5052;SDS011;2545;50.892;5.740;2022-07-10T06:52:50;8.80;;;2.30;;
5052;SDS011;2545;50.892;5.740;2022-07-10T06:55:17;4.77;;;2.23;;
5052;SDS011;2545;50.892;5.740;2022-07-10T06:57:43;5.10;;;2.60;;
5052;SDS011;2545;50.892;5.740;2022-07-10T07:00:09;3.53;;;2.97;;
5052;SDS011;2545;50.892;5.740;2022-07-10T07:02:35;6.43;;;2.87;;
5052;SDS011;2545;50.892;5.740;2022-07-10T07:05:00;10.63;;;2.40;;
5052;SDS011;2545;50.892;5.740;2022-07-10T07:07:26;5.30;;;2.37;;
5052;SDS011;2545;50.892;5.740;2022-07-10T07:09:51;4.33;;;2.43;;
5052;SDS011;2545;50.892;5.740;2022-07-10T07:12:17;5.87;;;2.10;;
5052;SDS011;2545;50.892;5.740;2022-07-10T07:14:43;6.93;;;2.63;;
5052;SDS011;2545;50.892;5.740;2022-07-10T07:17:08;5.60;;;2.17;;
5052;SDS011;2545;50.892;5.740;2022-07-10T07:19:36;6.23;;;2.50;;
5052;SDS011;2545;50.892;5.740;2022-07-10T07:22:20;8.50;;;1.93;;
5052;SDS011;2545;50.892;5.740;2022-07-10T07:25:05;8.07;;;2.10;;
5052;SDS011;2545;50.892;5.740;2022-07-10T07:27:32;11.63;;;2.30;;
5052;SDS011;2545;50.892;5.740;2022-07-10T07:30:01;4.70;;;2.23;;
5052;SDS011;2545;50.892;5.740;2022-07-10T07:32:31;8.50;;;2.57;;
5052;SDS011;2545;50.892;5.740;2022-07-10T07:34:56;10.93;;;2.30;;
5052;SDS011;2545;50.892;5.740;2022-07-10T07:37:21;9.57;;;2.47;;
5052;SDS011;2545;50.892;5.740;2022-07-10T07:39:48;8.87;;;2.23;;
5052;SDS011;2545;50.892;5.740;2022-07-10T07:42:14;15.70;;;2.50;;
5052;SDS011;2545;50.892;5.740;2022-07-10T07:44:39;17.70;;;2.50;;
5052;SDS011;2545;50.892;5.740;2022-07-10T07:47:04;8.47;;;2.17;;
5052;SDS011;2545;50.892;5.740;2022-07-10T07:49:29;6.93;;;2.00;;
5052;SDS011;2545;50.892;5.740;2022-07-10T07:51:55;11.50;;;2.43;;
5052;SDS011;2545;50.892;5.740;2022-07-10T07:54:20;7.10;;;2.13;;
5052;SDS011;2545;50.892;5.740;2022-07-10T07:56:46;11.60;;;2.67;;
5052;SDS011;2545;50.892;5.740;2022-07-10T07:59:12;6.50;;;2.30;;
5052;SDS011;2545;50.892;5.740;2022-07-10T08:01:37;8.73;;;2.40;;
5052;SDS011;2545;50.892;5.740;2022-07-10T08:04:03;10.50;;;2.40;;
5052;SDS011;2545;50.892;5.740;2022-07-10T08:06:28;5.33;;;2.20;;
5052;SDS011;2545;50.892;5.740;2022-07-10T08:08:54;12.70;;;2.23;;
5052;SDS011;2545;50.892;5.740;2022-07-10T08:11:19;6.27;;;2.20;;
5052;SDS011;2545;50.892;5.740;2022-07-10T08:13:44;7.20;;;2.30;;
5052;SDS011;2545;50.892;5.740;2022-07-10T08:16:10;8.93;;;2.70;;
5052;SDS011;2545;50.892;5.740;2022-07-10T08:18:35;5.53;;;2.17;;
5052;SDS011;2545;50.892;5.740;2022-07-10T08:21:00;11.43;;;3.20;;
5052;SDS011;2545;50.892;5.740;2022-07-10T08:23:26;5.47;;;2.20;;
5052;SDS011;2545;50.892;5.740;2022-07-10T08:25:51;6.27;;;2.43;;
5052;SDS011;2545;50.892;5.740;2022-07-10T08:28:16;9.90;;;2.03;;
5052;SDS011;2545;50.892;5.740;2022-07-10T08:30:42;8.53;;;2.47;;
5052;SDS011;2545;50.892;5.740;2022-07-10T08:33:08;9.17;;;1.80;;
5052;SDS011;2545;50.892;5.740;2022-07-10T08:35:33;8.73;;;1.90;;
5052;SDS011;2545;50.892;5.740;2022-07-10T08:37:58;6.33;;;2.00;;
5052;SDS011;2545;50.892;5.740;2022-07-10T08:40:24;5.90;;;1.80;;
5052;SDS011;2545;50.892;5.740;2022-07-10T08:42:49;7.87;;;1.83;;
5052;SDS011;2545;50.892;5.740;2022-07-10T08:45:15;7.90;;;2.47;;
5052;SDS011;2545;50.892;5.740;2022-07-10T08:47:41;11.57;;;2.47;;
5052;SDS011;2545;50.892;5.740;2022-07-10T08:50:15;5.50;;;2.63;;
5052;SDS011;2545;50.892;5.740;2022-07-10T08:55:41;7.10;;;1.97;;
5052;SDS011;2545;50.892;5.740;2022-07-10T08:58:08;10.20;;;2.63;;
5052;SDS011;2545;50.892;5.740;2022-07-10T09:00:33;5.60;;;2.00;;
5052;SDS011;2545;50.892;5.740;2022-07-10T09:02:59;5.20;;;2.70;;
5052;SDS011;2545;50.892;5.740;2022-07-10T09:05:24;11.67;;;2.40;;
5052;SDS011;2545;50.892;5.740;2022-07-10T09:07:50;14.57;;;2.70;;
5052;SDS011;2545;50.892;5.740;2022-07-10T09:10:18;7.10;;;2.00;;
5052;SDS011;2545;50.892;5.740;2022-07-10T09:12:50;11.27;;;2.47;;
5052;SDS011;2545;50.892;5.740;2022-07-10T09:15:17;3.90;;;2.10;;
5052;SDS011;2545;50.892;5.740;2022-07-10T09:17:51;7.10;;;3.03;;
5052;SDS011;2545;50.892;5.740;2022-07-10T09:20:24;6.87;;;2.23;;
5052;SDS011;2545;50.892;5.740;2022-07-10T09:22:51;12.77;;;2.80;;
5052;SDS011;2545;50.892;5.740;2022-07-10T09:25:17;10.33;;;2.20;;
5052;SDS011;2545;50.892;5.740;2022-07-10T09:27:52;14.60;;;2.40;;
5052;SDS011;2545;50.892;5.740;2022-07-10T09:30:56;7.57;;;2.50;;
5052;SDS011;2545;50.892;5.740;2022-07-10T09:33:18;8.50;;;2.20;;
5052;SDS011;2545;50.892;5.740;2022-07-10T09:35:54;6.27;;;2.33;;
5052;SDS011;2545;50.892;5.740;2022-07-10T09:39:03;8.93;;;2.07;;
5052;SDS011;2545;50.892;5.740;2022-07-10T09:41:26;10.00;;;2.03;;
5052;SDS011;2545;50.892;5.740;2022-07-10T09:44:00;6.23;;;1.77;;
5052;SDS011;2545;50.892;5.740;2022-07-10T09:46:33;6.30;;;1.80;;
5052;SDS011;2545;50.892;5.740;2022-07-10T09:49:11;4.87;;;2.40;;
5052;SDS011;2545;50.892;5.740;2022-07-10T09:51:41;7.63;;;2.07;;
5052;SDS011;2545;50.892;5.740;2022-07-10T09:54:08;6.17;;;2.13;;
5052;SDS011;2545;50.892;5.740;2022-07-10T09:56:41;6.70;;;2.10;;
5052;SDS011;2545;50.892;5.740;2022-07-10T09:59:09;6.80;;;2.03;;
5052;SDS011;2545;50.892;5.740;2022-07-10T10:01:36;5.50;;;2.30;;
5052;SDS011;2545;50.892;5.740;2022-07-10T10:04:03;10.47;;;2.87;;
5052;SDS011;2545;50.892;5.740;2022-07-10T10:06:29;3.43;;;1.83;;
5052;SDS011;2545;50.892;5.740;2022-07-10T10:11:46;9.70;;;1.93;;
5052;SDS011;2545;50.892;5.740;2022-07-10T10:14:14;7.93;;;1.97;;
5052;SDS011;2545;50.892;5.740;2022-07-10T10:16:42;3.90;;;2.20;;
5052;SDS011;2545;50.892;5.740;2022-07-10T10:19:09;3.80;;;2.30;;
5052;SDS011;2545;50.892;5.740;2022-07-10T10:22:02;8.53;;;1.90;;
5052;SDS011;2545;50.892;5.740;2022-07-10T10:24:28;3.80;;;1.83;;
5052;SDS011;2545;50.892;5.740;2022-07-10T10:26:57;9.43;;;2.20;;
5052;SDS011;2545;50.892;5.740;2022-07-10T10:29:22;5.37;;;1.73;;
5052;SDS011;2545;50.892;5.740;2022-07-10T10:31:48;12.93;;;2.40;;
5052;SDS011;2545;50.892;5.740;2022-07-10T10:34:14;7.63;;;2.03;;
5052;SDS011;2545;50.892;5.740;2022-07-10T10:37:23;6.83;;;2.23;;
5052;SDS011;2545;50.892;5.740;2022-07-10T10:39:52;12.97;;;1.90;;
5052;SDS011;2545;50.892;5.740;2022-07-10T10:48:00;9.20;;;2.33;;
5052;SDS011;2545;50.892;5.740;2022-07-10T10:50:42;6.17;;;2.07;;
5052;SDS011;2545;50.892;5.740;2022-07-10T10:53:15;7.13;;;1.80;;
5052;SDS011;2545;50.892;5.740;2022-07-10T10:58:28;4.03;;;1.90;;
5052;SDS011;2545;50.892;5.740;2022-07-10T11:06:40;25.63;;;2.37;;
5052;SDS011;2545;50.892;5.740;2022-07-10T11:09:28;10.73;;;2.13;;
5052;SDS011;2545;50.892;5.740;2022-07-10T11:12:01;3.40;;;1.80;;
5052;SDS011;2545;50.892;5.740;2022-07-10T11:14:34;5.17;;;2.10;;
5052;SDS011;2545;50.892;5.740;2022-07-10T11:17:01;15.00;;;2.30;;
5052;SDS011;2545;50.892;5.740;2022-07-10T11:19:28;6.43;;;2.23;;
5052;SDS011;2545;50.892;5.740;2022-07-10T11:22:43;5.43;;;2.27;;
5052;SDS011;2545;50.892;5.740;2022-07-10T11:27:55;4.77;;;2.20;;
5052;SDS011;2545;50.892;5.740;2022-07-10T11:30:46;9.10;;;2.03;;
5052;SDS011;2545;50.892;5.740;2022-07-10T11:33:18;14.03;;;2.00;;
5052;SDS011;2545;50.892;5.740;2022-07-10T11:35:51;5.13;;;2.07;;
5052;SDS011;2545;50.892;5.740;2022-07-10T11:38:26;6.90;;;2.20;;
5052;SDS011;2545;50.892;5.740;2022-07-10T11:40:52;6.30;;;2.07;;
5052;SDS011;2545;50.892;5.740;2022-07-10T11:43:19;5.80;;;2.33;;
5052;SDS011;2545;50.892;5.740;2022-07-10T11:45:48;4.83;;;2.10;;
5052;SDS011;2545;50.892;5.740;2022-07-10T11:48:21;4.10;;;2.60;;
5052;SDS011;2545;50.892;5.740;2022-07-10T11:50:48;7.10;;;2.30;;
5052;SDS011;2545;50.892;5.740;2022-07-10T11:53:13;11.07;;;2.87;;
5052;SDS011;2545;50.892;5.740;2022-07-10T11:55:46;12.33;;;2.97;;
5052;SDS011;2545;50.892;5.740;2022-07-10T11:58:12;11.47;;;2.50;;
5052;SDS011;2545;50.892;5.740;2022-07-10T12:00:39;5.90;;;2.60;;
5052;SDS011;2545;50.892;5.740;2022-07-10T12:03:20;6.73;;;2.40;;
5052;SDS011;2545;50.892;5.740;2022-07-10T12:05:46;8.77;;;2.60;;
5052;SDS011;2545;50.892;5.740;2022-07-10T12:08:13;8.70;;;2.40;;
5052;SDS011;2545;50.892;5.740;2022-07-10T12:10:39;11.27;;;2.80;;
5052;SDS011;2545;50.892;5.740;2022-07-10T12:13:11;17.70;;;3.37;;
5052;SDS011;2545;50.892;5.740;2022-07-10T12:15:38;7.03;;;2.43;;
5052;SDS011;2545;50.892;5.740;2022-07-10T12:18:05;10.13;;;2.77;;
5052;SDS011;2545;50.892;5.740;2022-07-10T12:20:32;10.40;;;2.50;;
5052;SDS011;2545;50.892;5.740;2022-07-10T12:22:59;5.70;;;2.63;;
5052;SDS011;2545;50.892;5.740;2022-07-10T12:25:25;7.47;;;2.27;;
5052;SDS011;2545;50.892;5.740;2022-07-10T12:27:54;9.60;;;2.33;;
5052;SDS011;2545;50.892;5.740;2022-07-10T12:30:21;4.60;;;2.50;;
5052;SDS011;2545;50.892;5.740;2022-07-10T12:32:48;9.80;;;2.73;;
5052;SDS011;2545;50.892;5.740;2022-07-10T12:35:13;5.40;;;2.60;;
5052;SDS011;2545;50.892;5.740;2022-07-10T12:37:49;11.43;;;2.30;;
5052;SDS011;2545;50.892;5.740;2022-07-10T12:40:33;5.00;;;2.80;;
5052;SDS011;2545;50.892;5.740;2022-07-10T12:43:02;11.13;;;2.70;;
5052;SDS011;2545;50.892;5.740;2022-07-10T12:45:28;6.97;;;2.40;;
5052;SDS011;2545;50.892;5.740;2022-07-10T12:47:53;6.17;;;2.40;;
5052;SDS011;2545;50.892;5.740;2022-07-10T12:50:19;8.87;;;2.30;;
5052;SDS011;2545;50.892;5.740;2022-07-10T12:52:45;5.10;;;2.40;;
5052;SDS011;2545;50.892;5.740;2022-07-10T12:55:18;5.50;;;2.93;;
5052;SDS011;2545;50.892;5.740;2022-07-10T13:00:22;8.63;;;2.00;;
5052;SDS011;2545;50.892;5.740;2022-07-10T13:02:49;5.10;;;2.60;;
5052;SDS011;2545;50.892;5.740;2022-07-10T13:07:53;3.80;;;2.30;;
5052;SDS011;2545;50.892;5.740;2022-07-10T13:10:30;6.57;;;2.27;;
5052;SDS011;2545;50.892;5.740;2022-07-10T13:12:55;6.90;;;2.40;;
5052;SDS011;2545;50.892;5.740;2022-07-10T13:15:21;10.83;;;2.60;;
5052;SDS011;2545;50.892;5.740;2022-07-10T13:17:48;5.97;;;2.40;;
5052;SDS011;2545;50.892;5.740;2022-07-10T13:20:13;3.30;;;2.03;;
5052;SDS011;2545;50.892;5.740;2022-07-10T13:22:39;4.53;;;2.33;;
5052;SDS011;2545;50.892;5.740;2022-07-10T13:25:05;5.80;;;2.40;;
5052;SDS011;2545;50.892;5.740;2022-07-10T13:27:30;4.27;;;2.63;;
5052;SDS011;2545;50.892;5.740;2022-07-10T13:29:57;4.97;;;2.47;;
5052;SDS011;2545;50.892;5.740;2022-07-10T13:32:22;5.53;;;2.13;;
5052;SDS011;2545;50.892;5.740;2022-07-10T13:34:48;6.30;;;2.73;;
5052;SDS011;2545;50.892;5.740;2022-07-10T13:37:13;4.37;;;2.20;;
5052;SDS011;2545;50.892;5.740;2022-07-10T13:39:39;5.13;;;2.20;;
5052;SDS011;2545;50.892;5.740;2022-07-10T13:42:05;4.57;;;2.43;;
5052;SDS011;2545;50.892;5.740;2022-07-10T13:44:30;3.83;;;2.33;;
5052;SDS011;2545;50.892;5.740;2022-07-10T13:46:56;12.23;;;3.37;;
5052;SDS011;2545;50.892;5.740;2022-07-10T13:49:21;9.83;;;2.40;;
5052;SDS011;2545;50.892;5.740;2022-07-10T13:51:47;3.97;;;2.60;;
5052;SDS011;2545;50.892;5.740;2022-07-10T13:54:12;6.40;;;2.23;;
5052;SDS011;2545;50.892;5.740;2022-07-10T13:56:38;6.43;;;2.40;;
5052;SDS011;2545;50.892;5.740;2022-07-10T13:59:03;6.60;;;2.43;;
5052;SDS011;2545;50.892;5.740;2022-07-10T14:01:29;4.20;;;2.50;;
5052;SDS011;2545;50.892;5.740;2022-07-10T14:03:54;3.57;;;2.80;;
5052;SDS011;2545;50.892;5.740;2022-07-10T14:06:19;9.43;;;3.27;;
5052;SDS011;2545;50.892;5.740;2022-07-10T14:08:45;3.77;;;2.40;;
5052;SDS011;2545;50.892;5.740;2022-07-10T14:11:10;5.03;;;2.30;;
5052;SDS011;2545;50.892;5.740;2022-07-10T14:13:36;4.53;;;2.50;;
5052;SDS011;2545;50.892;5.740;2022-07-10T14:16:01;5.90;;;2.53;;
5052;SDS011;2545;50.892;5.740;2022-07-10T14:18:27;9.30;;;2.20;;
5052;SDS011;2545;50.892;5.740;2022-07-10T14:21:06;2.87;;;1.80;;
5052;SDS011;2545;50.892;5.740;2022-07-10T14:23:36;2.63;;;2.17;;
5052;SDS011;2545;50.892;5.740;2022-07-10T14:26:04;3.53;;;2.03;;
5052;SDS011;2545;50.892;5.740;2022-07-10T14:28:30;2.90;;;1.80;;
5052;SDS011;2545;50.892;5.740;2022-07-10T14:30:57;7.20;;;2.60;;
5052;SDS011;2545;50.892;5.740;2022-07-10T14:33:25;9.00;;;2.73;;
5052;SDS011;2545;50.892;5.740;2022-07-10T14:35:50;4.90;;;1.97;;
5052;SDS011;2545;50.892;5.740;2022-07-10T14:38:15;2.80;;;1.93;;
5052;SDS011;2545;50.892;5.740;2022-07-10T14:40:41;4.33;;;1.97;;
5052;SDS011;2545;50.892;5.740;2022-07-10T14:43:06;5.20;;;1.97;;
5052;SDS011;2545;50.892;5.740;2022-07-10T14:45:31;3.20;;;2.00;;
5052;SDS011;2545;50.892;5.740;2022-07-10T14:47:57;4.60;;;1.80;;
5052;SDS011;2545;50.892;5.740;2022-07-10T14:50:23;2.60;;;1.70;;
5052;SDS011;2545;50.892;5.740;2022-07-10T14:52:48;3.30;;;2.00;;
5052;SDS011;2545;50.892;5.740;2022-07-10T14:55:14;7.53;;;2.17;;
5052;SDS011;2545;50.892;5.740;2022-07-10T14:57:39;4.50;;;2.03;;
5052;SDS011;2545;50.892;5.740;2022-07-10T15:00:05;6.43;;;2.47;;
5052;SDS011;2545;50.892;5.740;2022-07-10T15:02:31;6.93;;;1.97;;
5052;SDS011;2545;50.892;5.740;2022-07-10T15:04:56;8.77;;;1.93;;
5052;SDS011;2545;50.892;5.740;2022-07-10T15:07:21;4.63;;;2.30;;
5052;SDS011;2545;50.892;5.740;2022-07-10T15:09:47;8.13;;;1.93;;
5052;SDS011;2545;50.892;5.740;2022-07-10T15:12:12;5.23;;;2.00;;
5052;SDS011;2545;50.892;5.740;2022-07-10T15:14:38;5.57;;;2.00;;
5052;SDS011;2545;50.892;5.740;2022-07-10T15:17:03;9.13;;;2.37;;
5052;SDS011;2545;50.892;5.740;2022-07-10T15:19:29;9.07;;;3.00;;
5052;SDS011;2545;50.892;5.740;2022-07-10T15:21:54;9.30;;;2.37;;
5052;SDS011;2545;50.892;5.740;2022-07-10T15:24:20;5.77;;;1.90;;
5052;SDS011;2545;50.892;5.740;2022-07-10T15:26:45;5.07;;;2.20;;
5052;SDS011;2545;50.892;5.740;2022-07-10T15:29:11;5.47;;;2.00;;
5052;SDS011;2545;50.892;5.740;2022-07-10T15:31:37;6.53;;;2.27;;
5052;SDS011;2545;50.892;5.740;2022-07-10T15:34:06;3.83;;;1.90;;
5052;SDS011;2545;50.892;5.740;2022-07-10T15:36:33;7.00;;;2.03;;
5052;SDS011;2545;50.892;5.740;2022-07-10T15:38:59;4.63;;;2.10;;
5052;SDS011;2545;50.892;5.740;2022-07-10T15:41:24;5.03;;;2.50;;